sensor_id;sensor_type;location;lat;lon;timestamp;temperature;humidity
40758;DHT22;26462;47.384;19.218;2022-11-20T00:01:08;3.20;99.90
40758;DHT22;26462;47.384;19.218;2022-11-20T00:03:35;3.10;99.90
40758;DHT22;26462;47.384;19.218;2022-11-20T00:06:05;3.10;99.90
40758;DHT22;26462;47.384;19.218;2022-11-20T00:08:32;3.00;99.90
40758;DHT22;26462;47.384;19.218;2022-11-20T00:11:08;3.10;99.90
40758;DHT22;26462;47.384;19.218;2022-11-20T00:13:41;3.00;99.90
40758;DHT22;26462;47.384;19.218;2022-11-20T00:16:09;3.10;99.90
40758;DHT22;26462;47.384;19.218;2022-11-20T00:18:36;3.00;99.90
40758;DHT22;26462;47.384;19.218;2022-11-20T00:21:06;3.90;99.90
40758;DHT22;26462;47.384;19.218;2022-11-20T00:23:33;3.10;99.90
40758;DHT22;26462;47.384;19.218;2022-11-20T00:26:05;3.10;99.90
40758;DHT22;26462;47.384;19.218;2022-11-20T00:28:33;3.10;99.90
40758;DHT22;26462;47.384;19.218;2022-11-20T00:31:05;3.10;99.90
40758;DHT22;26462;47.384;19.218;2022-11-20T00:33:32;3.10;99.90
40758;DHT22;26462;47.384;19.218;2022-11-20T00:36:07;3.10;99.90
40758;DHT22;26462;47.384;19.218;2022-11-20T00:38:35;3.00;99.90
40758;DHT22;26462;47.384;19.218;2022-11-20T00:41:05;3.70;99.90
40758;DHT22;26462;47.384;19.218;2022-11-20T00:43:33;3.10;99.90
40758;DHT22;26462;47.384;19.218;2022-11-20T00:46:02;3.30;99.90
40758;DHT22;26462;47.384;19.218;2022-11-20T00:48:29;3.10;99.90
40758;DHT22;26462;47.384;19.218;2022-11-20T00:50:57;3.00;99.90
40758;DHT22;26462;47.384;19.218;2022-11-20T00:53:24;3.00;99.90
40758;DHT22;26462;47.384;19.218;2022-11-20T00:56:04;3.00;99.90
40758;DHT22;26462;47.384;19.218;2022-11-20T00:58:34;3.00;99.90
40758;DHT22;26462;47.384;19.218;2022-11-20T01:01:09;2.90;99.90
40758;DHT22;26462;47.384;19.218;2022-11-20T01:03:42;2.90;99.90
40758;DHT22;26462;47.384;19.218;2022-11-20T01:06:15;2.90;99.90
40758;DHT22;26462;47.384;19.218;2022-11-20T01:08:43;3.40;99.90
40758;DHT22;26462;47.384;19.218;2022-11-20T01:11:16;3.00;99.90
40758;DHT22;26462;47.384;19.218;2022-11-20T01:13:44;3.00;99.90
40758;DHT22;26462;47.384;19.218;2022-11-20T01:16:24;3.00;99.90
40758;DHT22;26462;47.384;19.218;2022-11-20T01:18:53;3.00;99.90
40758;DHT22;26462;47.384;19.218;2022-11-20T01:21:23;3.00;99.90
40758;DHT22;26462;47.384;19.218;2022-11-20T01:23:51;3.00;99.90
40758;DHT22;26462;47.384;19.218;2022-11-20T01:26:21;3.00;99.90
40758;DHT22;26462;47.384;19.218;2022-11-20T01:28:49;3.00;99.90
40758;DHT22;26462;47.384;19.218;2022-11-20T01:31:20;2.80;99.90
40758;DHT22;26462;47.384;19.218;2022-11-20T01:33:49;3.00;99.90
40758;DHT22;26462;47.384;19.218;2022-11-20T01:36:18;3.20;99.90
40758;DHT22;26462;47.384;19.218;2022-11-20T01:38:46;2.90;99.90
40758;DHT22;26462;47.384;19.218;2022-11-20T01:41:14;2.70;99.90
40758;DHT22;26462;47.384;19.218;2022-11-20T01:44:02;2.80;99.90
40758;DHT22;26462;47.384;19.218;2022-11-20T01:46:32;2.80;99.90
40758;DHT22;26462;47.384;19.218;2022-11-20T01:49:18;2.70;99.90
40758;DHT22;26462;47.384;19.218;2022-11-20T01:52:00;2.70;99.90
40758;DHT22;26462;47.384;19.218;2022-11-20T01:54:38;2.80;99.90
40758;DHT22;26462;47.384;19.218;2022-11-20T01:57:09;2.60;99.90
40758;DHT22;26462;47.384;19.218;2022-11-20T01:59:44;2.80;99.90
40758;DHT22;26462;47.384;19.218;2022-11-20T02:02:19;2.70;99.90
40758;DHT22;26462;47.384;19.218;2022-11-20T02:04:48;2.70;99.90
40758;DHT22;26462;47.384;19.218;2022-11-20T02:07:16;2.70;99.90
40758;DHT22;26462;47.384;19.218;2022-11-20T02:09:44;2.70;99.90
40758;DHT22;26462;47.384;19.218;2022-11-20T02:12:11;3.00;99.90
40758;DHT22;26462;47.384;19.218;2022-11-20T02:14:58;2.60;99.90
40758;DHT22;26462;47.384;19.218;2022-11-20T02:17:25;2.80;99.90
40758;DHT22;26462;47.384;19.218;2022-11-20T02:19:52;3.00;99.90
40758;DHT22;26462;47.384;19.218;2022-11-20T02:22:47;3.30;99.90
40758;DHT22;26462;47.384;19.218;2022-11-20T02:25:15;2.80;99.90
40758;DHT22;26462;47.384;19.218;2022-11-20T02:27:42;2.50;99.90
40758;DHT22;26462;47.384;19.218;2022-11-20T02:30:10;2.70;99.90
40758;DHT22;26462;47.384;19.218;2022-11-20T02:32:38;2.70;99.90
40758;DHT22;26462;47.384;19.218;2022-11-20T02:37:46;2.80;99.90
40758;DHT22;26462;47.384;19.218;2022-11-20T02:40:14;2.90;99.90
40758;DHT22;26462;47.384;19.218;2022-11-20T02:42:41;2.70;99.90
40758;DHT22;26462;47.384;19.218;2022-11-20T02:45:08;2.70;99.90
40758;DHT22;26462;47.384;19.218;2022-11-20T02:47:36;2.70;99.90
40758;DHT22;26462;47.384;19.218;2022-11-20T02:50:04;2.90;99.90
40758;DHT22;26462;47.384;19.218;2022-11-20T02:52:31;2.80;99.90
40758;DHT22;26462;47.384;19.218;2022-11-20T02:54:58;2.80;99.90
40758;DHT22;26462;47.384;19.218;2022-11-20T02:57:25;3.30;99.90
40758;DHT22;26462;47.384;19.218;2022-11-20T02:59:52;2.80;99.90
40758;DHT22;26462;47.384;19.218;2022-11-20T03:02:20;2.80;99.90
40758;DHT22;26462;47.384;19.218;2022-11-20T03:04:47;2.80;99.90
40758;DHT22;26462;47.384;19.218;2022-11-20T03:07:14;2.90;99.90
40758;DHT22;26462;47.384;19.218;2022-11-20T03:09:41;2.90;99.90
40758;DHT22;26462;47.384;19.218;2022-11-20T03:12:08;2.90;99.90
40758;DHT22;26462;47.384;19.218;2022-11-20T03:14:35;2.90;99.90
40758;DHT22;26462;47.384;19.218;2022-11-20T03:17:02;2.80;99.90
40758;DHT22;26462;47.384;19.218;2022-11-20T03:19:29;2.80;99.90
40758;DHT22;26462;47.384;19.218;2022-11-20T03:21:56;3.00;99.90
40758;DHT22;26462;47.384;19.218;2022-11-20T03:24:23;2.80;99.90
40758;DHT22;26462;47.384;19.218;2022-11-20T03:26:50;2.80;99.90
40758;DHT22;26462;47.384;19.218;2022-11-20T03:29:17;2.90;99.90
40758;DHT22;26462;47.384;19.218;2022-11-20T03:31:44;2.90;99.90
40758;DHT22;26462;47.384;19.218;2022-11-20T03:34:11;3.00;99.90
40758;DHT22;26462;47.384;19.218;2022-11-20T03:36:41;3.00;99.90
40758;DHT22;26462;47.384;19.218;2022-11-20T03:39:08;3.00;99.90
40758;DHT22;26462;47.384;19.218;2022-11-20T03:41:38;3.30;99.90
40758;DHT22;26462;47.384;19.218;2022-11-20T03:44:07;3.00;99.90
40758;DHT22;26462;47.384;19.218;2022-11-20T03:46:34;3.00;99.90
40758;DHT22;26462;47.384;19.218;2022-11-20T03:49:01;3.00;99.90
40758;DHT22;26462;47.384;19.218;2022-11-20T03:51:33;3.00;99.90
40758;DHT22;26462;47.384;19.218;2022-11-20T03:54:06;3.00;99.90
40758;DHT22;26462;47.384;19.218;2022-11-20T03:56:36;3.00;99.90
40758;DHT22;26462;47.384;19.218;2022-11-20T03:59:03;3.00;99.90
40758;DHT22;26462;47.384;19.218;2022-11-20T04:01:33;3.00;99.90
40758;DHT22;26462;47.384;19.218;2022-11-20T04:04:01;3.10;99.90
40758;DHT22;26462;47.384;19.218;2022-11-20T04:06:30;2.80;99.90
40758;DHT22;26462;47.384;19.218;2022-11-20T04:08:58;2.80;99.90
40758;DHT22;26462;47.384;19.218;2022-11-20T04:11:28;2.90;99.90
40758;DHT22;26462;47.384;19.218;2022-11-20T04:13:57;2.80;99.90
40758;DHT22;26462;47.384;19.218;2022-11-20T04:16:25;2.90;99.90
40758;DHT22;26462;47.384;19.218;2022-11-20T04:18:54;2.90;99.90
40758;DHT22;26462;47.384;19.218;2022-11-20T04:21:21;2.80;99.90
40758;DHT22;26462;47.384;19.218;2022-11-20T04:23:50;2.90;99.90
40758;DHT22;26462;47.384;19.218;2022-11-20T04:26:17;2.80;99.90
40758;DHT22;26462;47.384;19.218;2022-11-20T04:28:44;2.80;99.90
40758;DHT22;26462;47.384;19.218;2022-11-20T04:31:18;2.80;99.90
40758;DHT22;26462;47.384;19.218;2022-11-20T04:33:45;2.80;99.90
40758;DHT22;26462;47.384;19.218;2022-11-20T04:38:44;3.00;99.90
40758;DHT22;26462;47.384;19.218;2022-11-20T04:41:16;2.80;99.90
40758;DHT22;26462;47.384;19.218;2022-11-20T04:43:47;2.70;99.90
40758;DHT22;26462;47.384;19.218;2022-11-20T04:46:16;2.70;99.90
40758;DHT22;26462;47.384;19.218;2022-11-20T04:48:43;3.10;99.90
40758;DHT22;26462;47.384;19.218;2022-11-20T04:51:10;2.80;99.90
40758;DHT22;26462;47.384;19.218;2022-11-20T04:53:38;2.60;99.90
40758;DHT22;26462;47.384;19.218;2022-11-20T04:56:07;2.60;99.90
40758;DHT22;26462;47.384;19.218;2022-11-20T04:58:34;2.60;99.90
40758;DHT22;26462;47.384;19.218;2022-11-20T05:01:10;2.50;99.90
40758;DHT22;26462;47.384;19.218;2022-11-20T05:03:38;2.60;99.90
40758;DHT22;26462;47.384;19.218;2022-11-20T05:06:09;2.60;99.90
40758;DHT22;26462;47.384;19.218;2022-11-20T05:08:36;2.60;99.90
40758;DHT22;26462;47.384;19.218;2022-11-20T05:11:06;2.70;99.90
40758;DHT22;26462;47.384;19.218;2022-11-20T05:13:33;2.60;99.90
40758;DHT22;26462;47.384;19.218;2022-11-20T05:16:08;2.60;99.90
40758;DHT22;26462;47.384;19.218;2022-11-20T05:18:36;2.60;99.90
40758;DHT22;26462;47.384;19.218;2022-11-20T05:21:04;3.00;99.90
40758;DHT22;26462;47.384;19.218;2022-11-20T05:23:32;2.50;99.90
40758;DHT22;26462;47.384;19.218;2022-11-20T05:26:00;2.50;99.90
40758;DHT22;26462;47.384;19.218;2022-11-20T05:28:28;2.60;99.90
40758;DHT22;26462;47.384;19.218;2022-11-20T05:30:56;2.60;99.90
40758;DHT22;26462;47.384;19.218;2022-11-20T05:33:23;2.60;99.90
40758;DHT22;26462;47.384;19.218;2022-11-20T05:35:49;3.00;99.90
40758;DHT22;26462;47.384;19.218;2022-11-20T05:38:16;2.60;99.90
40758;DHT22;26462;47.384;19.218;2022-11-20T05:40:43;3.00;99.90
40758;DHT22;26462;47.384;19.218;2022-11-20T05:43:10;2.70;99.90
40758;DHT22;26462;47.384;19.218;2022-11-20T05:45:37;2.60;99.90
40758;DHT22;26462;47.384;19.218;2022-11-20T05:48:04;2.70;99.90
40758;DHT22;26462;47.384;19.218;2022-11-20T05:50:31;2.70;99.90
40758;DHT22;26462;47.384;19.218;2022-11-20T05:52:59;2.50;99.90
40758;DHT22;26462;47.384;19.218;2022-11-20T05:55:27;2.60;99.90
40758;DHT22;26462;47.384;19.218;2022-11-20T05:57:54;2.50;99.90
40758;DHT22;26462;47.384;19.218;2022-11-20T06:00:22;2.50;99.90
40758;DHT22;26462;47.384;19.218;2022-11-20T06:02:49;2.50;99.90
40758;DHT22;26462;47.384;19.218;2022-11-20T06:05:16;3.20;99.90
40758;DHT22;26462;47.384;19.218;2022-11-20T06:07:43;3.00;99.90
40758;DHT22;26462;47.384;19.218;2022-11-20T06:10:10;2.60;99.90
40758;DHT22;26462;47.384;19.218;2022-11-20T06:12:38;2.60;99.90
40758;DHT22;26462;47.384;19.218;2022-11-20T06:15:05;2.70;99.90
40758;DHT22;26462;47.384;19.218;2022-11-20T06:17:33;2.50;99.90
40758;DHT22;26462;47.384;19.218;2022-11-20T06:20:00;2.50;99.90
40758;DHT22;26462;47.384;19.218;2022-11-20T06:22:27;3.20;99.90
40758;DHT22;26462;47.384;19.218;2022-11-20T06:24:54;2.60;99.90
40758;DHT22;26462;47.384;19.218;2022-11-20T06:27:21;2.50;99.90
40758;DHT22;26462;47.384;19.218;2022-11-20T06:29:48;2.40;99.90
40758;DHT22;26462;47.384;19.218;2022-11-20T06:32:15;2.80;99.90
40758;DHT22;26462;47.384;19.218;2022-11-20T06:34:42;2.60;99.90
40758;DHT22;26462;47.384;19.218;2022-11-20T06:37:09;2.50;99.90
40758;DHT22;26462;47.384;19.218;2022-11-20T06:39:36;2.60;99.90
40758;DHT22;26462;47.384;19.218;2022-11-20T06:42:03;2.70;99.90
40758;DHT22;26462;47.384;19.218;2022-11-20T06:44:30;2.60;99.90
40758;DHT22;26462;47.384;19.218;2022-11-20T06:46:57;3.20;99.90
40758;DHT22;26462;47.384;19.218;2022-11-20T06:49:24;2.70;99.90
40758;DHT22;26462;47.384;19.218;2022-11-20T06:51:51;2.80;99.90
40758;DHT22;26462;47.384;19.218;2022-11-20T06:54:19;2.80;99.90
40758;DHT22;26462;47.384;19.218;2022-11-20T06:56:49;2.80;99.90
40758;DHT22;26462;47.384;19.218;2022-11-20T06:59:16;2.80;99.90
40758;DHT22;26462;47.384;19.218;2022-11-20T07:01:43;2.70;99.90
40758;DHT22;26462;47.384;19.218;2022-11-20T07:04:10;3.00;99.90
40758;DHT22;26462;47.384;19.218;2022-11-20T07:06:37;2.80;99.90
40758;DHT22;26462;47.384;19.218;2022-11-20T07:09:04;3.20;99.90
40758;DHT22;26462;47.384;19.218;2022-11-20T07:11:47;2.80;99.90
40758;DHT22;26462;47.384;19.218;2022-11-20T07:14:14;2.80;99.90
40758;DHT22;26462;47.384;19.218;2022-11-20T07:16:41;2.90;99.90
40758;DHT22;26462;47.384;19.218;2022-11-20T07:19:08;2.80;99.90
40758;DHT22;26462;47.384;19.218;2022-11-20T07:21:35;2.80;99.90
40758;DHT22;26462;47.384;19.218;2022-11-20T07:24:02;3.40;99.90
40758;DHT22;26462;47.384;19.218;2022-11-20T07:26:29;2.90;99.90
40758;DHT22;26462;47.384;19.218;2022-11-20T07:28:56;3.30;99.90
40758;DHT22;26462;47.384;19.218;2022-11-20T07:31:23;3.00;99.90
40758;DHT22;26462;47.384;19.218;2022-11-20T07:33:50;3.00;99.90
40758;DHT22;26462;47.384;19.218;2022-11-20T07:36:17;3.10;99.90
40758;DHT22;26462;47.384;19.218;2022-11-20T07:38:44;3.10;99.90
40758;DHT22;26462;47.384;19.218;2022-11-20T07:41:11;3.10;99.90
40758;DHT22;26462;47.384;19.218;2022-11-20T07:43:38;3.20;99.90
40758;DHT22;26462;47.384;19.218;2022-11-20T07:46:07;3.20;99.90
40758;DHT22;26462;47.384;19.218;2022-11-20T07:48:34;3.10;99.90
40758;DHT22;26462;47.384;19.218;2022-11-20T07:51:01;3.10;99.90
40758;DHT22;26462;47.384;19.218;2022-11-20T07:53:28;3.20;99.90
40758;DHT22;26462;47.384;19.218;2022-11-20T07:55:58;3.20;99.90
40758;DHT22;26462;47.384;19.218;2022-11-20T07:58:25;3.20;99.90
40758;DHT22;26462;47.384;19.218;2022-11-20T08:00:53;3.30;99.90
40758;DHT22;26462;47.384;19.218;2022-11-20T08:03:20;3.20;99.90
40758;DHT22;26462;47.384;19.218;2022-11-20T08:05:54;3.50;99.90
40758;DHT22;26462;47.384;19.218;2022-11-20T08:08:23;3.30;99.90
40758;DHT22;26462;47.384;19.218;2022-11-20T08:10:50;3.00;99.90
40758;DHT22;26462;47.384;19.218;2022-11-20T08:13:17;3.30;99.90
40758;DHT22;26462;47.384;19.218;2022-11-20T08:18:45;3.50;99.90
40758;DHT22;26462;47.384;19.218;2022-11-20T08:21:14;3.40;99.90
40758;DHT22;26462;47.384;19.218;2022-11-20T08:23:41;3.50;99.90
40758;DHT22;26462;47.384;19.218;2022-11-20T08:26:09;3.50;99.90
40758;DHT22;26462;47.384;19.218;2022-11-20T08:28:36;3.70;99.90
40758;DHT22;26462;47.384;19.218;2022-11-20T08:31:04;3.70;99.90
40758;DHT22;26462;47.384;19.218;2022-11-20T08:33:31;3.70;99.90
40758;DHT22;26462;47.384;19.218;2022-11-20T08:36:00;3.20;99.90
40758;DHT22;26462;47.384;19.218;2022-11-20T08:38:28;4.00;99.90
40758;DHT22;26462;47.384;19.218;2022-11-20T08:41:00;3.70;99.90
40758;DHT22;26462;47.384;19.218;2022-11-20T08:43:46;3.80;99.90
40758;DHT22;26462;47.384;19.218;2022-11-20T08:46:14;3.80;99.90
40758;DHT22;26462;47.384;19.218;2022-11-20T08:48:42;3.60;99.90
40758;DHT22;26462;47.384;19.218;2022-11-20T08:51:10;3.20;99.90
40758;DHT22;26462;47.384;19.218;2022-11-20T08:53:38;4.00;99.90
40758;DHT22;26462;47.384;19.218;2022-11-20T08:56:06;4.00;99.90
40758;DHT22;26462;47.384;19.218;2022-11-20T08:58:33;4.10;99.90
40758;DHT22;26462;47.384;19.218;2022-11-20T09:01:22;4.00;99.90
40758;DHT22;26462;47.384;19.218;2022-11-20T09:03:50;4.10;99.90
40758;DHT22;26462;47.384;19.218;2022-11-20T09:06:17;4.10;99.90
40758;DHT22;26462;47.384;19.218;2022-11-20T09:08:46;4.20;99.90
40758;DHT22;26462;47.384;19.218;2022-11-20T09:11:14;4.20;99.90
40758;DHT22;26462;47.384;19.218;2022-11-20T09:13:41;4.20;99.90
40758;DHT22;26462;47.384;19.218;2022-11-20T09:16:08;4.30;99.90
40758;DHT22;26462;47.384;19.218;2022-11-20T09:18:37;4.30;99.90
40758;DHT22;26462;47.384;19.218;2022-11-20T09:21:08;5.10;99.90
40758;DHT22;26462;47.384;19.218;2022-11-20T09:23:38;4.30;99.90
40758;DHT22;26462;47.384;19.218;2022-11-20T09:26:07;3.60;99.90
40758;DHT22;26462;47.384;19.218;2022-11-20T09:28:35;4.30;99.90
40758;DHT22;26462;47.384;19.218;2022-11-20T09:31:13;4.60;99.90
40758;DHT22;26462;47.384;19.218;2022-11-20T09:33:44;4.20;99.90
40758;DHT22;26462;47.384;19.218;2022-11-20T09:36:14;4.20;99.90
40758;DHT22;26462;47.384;19.218;2022-11-20T09:39:01;4.40;99.90
40758;DHT22;26462;47.384;19.218;2022-11-20T09:44:47;4.30;99.90
40758;DHT22;26462;47.384;19.218;2022-11-20T09:55:38;4.60;99.90
40758;DHT22;26462;47.384;19.218;2022-11-20T09:58:07;4.50;99.90
40758;DHT22;26462;47.384;19.218;2022-11-20T10:00:39;4.60;99.90
40758;DHT22;26462;47.384;19.218;2022-11-20T10:03:45;4.60;99.90
40758;DHT22;26462;47.384;19.218;2022-11-20T10:06:33;4.70;99.90
40758;DHT22;26462;47.384;19.218;2022-11-20T10:09:19;4.70;99.90
40758;DHT22;26462;47.384;19.218;2022-11-20T10:18:02;4.90;99.90
40758;DHT22;26462;47.384;19.218;2022-11-20T10:20:56;4.90;99.90
40758;DHT22;26462;47.384;19.218;2022-11-20T10:29:10;5.20;99.90
40758;DHT22;26462;47.384;19.218;2022-11-20T10:31:41;5.20;99.90
40758;DHT22;26462;47.384;19.218;2022-11-20T10:34:28;4.10;99.90
40758;DHT22;26462;47.384;19.218;2022-11-20T10:37:24;5.10;99.90
40758;DHT22;26462;47.384;19.218;2022-11-20T10:43:17;5.20;99.90
40758;DHT22;26462;47.384;19.218;2022-11-20T10:46:05;5.30;99.90
40758;DHT22;26462;47.384;19.218;2022-11-20T10:48:34;5.30;99.90
40758;DHT22;26462;47.384;19.218;2022-11-20T10:51:52;5.40;99.90
40758;DHT22;26462;47.384;19.218;2022-11-20T11:00:17;5.50;99.90
40758;DHT22;26462;47.384;19.218;2022-11-20T11:02:53;5.50;99.90
40758;DHT22;26462;47.384;19.218;2022-11-20T11:05:47;5.50;99.90
40758;DHT22;26462;47.384;19.218;2022-11-20T11:08:22;5.50;99.90
40758;DHT22;26462;47.384;19.218;2022-11-20T11:14:20;5.60;99.90
40758;DHT22;26462;47.384;19.218;2022-11-20T11:16:56;5.60;99.90
40758;DHT22;26462;47.384;19.218;2022-11-20T11:19:24;5.60;99.90
40758;DHT22;26462;47.384;19.218;2022-11-20T11:22:16;5.60;99.90
40758;DHT22;26462;47.384;19.218;2022-11-20T11:24:54;5.60;99.90
40758;DHT22;26462;47.384;19.218;2022-11-20T11:27:22;5.10;99.90
40758;DHT22;26462;47.384;19.218;2022-11-20T11:30:02;5.70;99.90
40758;DHT22;26462;47.384;19.218;2022-11-20T11:32:31;5.70;99.90
40758;DHT22;26462;47.384;19.218;2022-11-20T11:35:11;5.80;99.90
40758;DHT22;26462;47.384;19.218;2022-11-20T11:37:46;5.80;99.90
40758;DHT22;26462;47.384;19.218;2022-11-20T11:40:17;5.80;99.90
40758;DHT22;26462;47.384;19.218;2022-11-20T11:43:01;5.80;99.90
40758;DHT22;26462;47.384;19.218;2022-11-20T11:45:30;6.00;99.90
40758;DHT22;26462;47.384;19.218;2022-11-20T11:48:03;5.80;99.90
40758;DHT22;26462;47.384;19.218;2022-11-20T11:50:35;6.00;99.90
40758;DHT22;26462;47.384;19.218;2022-11-20T11:53:13;6.00;99.90
40758;DHT22;26462;47.384;19.218;2022-11-20T12:12:16;6.30;99.90
40758;DHT22;26462;47.384;19.218;2022-11-20T12:14:47;6.20;99.90
40758;DHT22;26462;47.384;19.218;2022-11-20T12:17:17;6.30;99.90
40758;DHT22;26462;47.384;19.218;2022-11-20T12:19:45;6.30;99.90
40758;DHT22;26462;47.384;19.218;2022-11-20T12:22:35;6.10;99.90
40758;DHT22;26462;47.384;19.218;2022-11-20T12:25:38;6.40;99.90
40758;DHT22;26462;47.384;19.218;2022-11-20T12:31:25;6.40;99.90
40758;DHT22;26462;47.384;19.218;2022-11-20T12:37:22;6.10;99.90
40758;DHT22;26462;47.384;19.218;2022-11-20T12:40:05;6.40;99.90
40758;DHT22;26462;47.384;19.218;2022-11-20T12:58:38;6.20;99.90
40758;DHT22;26462;47.384;19.218;2022-11-20T13:00:33;7.10;99.90
40758;DHT22;26462;47.384;19.218;2022-11-20T13:08:37;6.40;99.90
40758;DHT22;26462;47.384;19.218;2022-11-20T13:14:31;6.50;99.90
40758;DHT22;26462;47.384;19.218;2022-11-20T13:19:51;5.80;99.90
40758;DHT22;26462;47.384;19.218;2022-11-20T13:22:28;6.50;99.90
40758;DHT22;26462;47.384;19.218;2022-11-20T13:24:56;6.50;99.90
40758;DHT22;26462;47.384;19.218;2022-11-20T13:27:26;6.00;99.90
40758;DHT22;26462;47.384;19.218;2022-11-20T13:30:14;6.40;99.90
40758;DHT22;26462;47.384;19.218;2022-11-20T13:33:06;6.10;99.90
40758;DHT22;26462;47.384;19.218;2022-11-20T13:35:42;6.40;99.90
40758;DHT22;26462;47.384;19.218;2022-11-20T13:38:12;6.40;99.90
40758;DHT22;26462;47.384;19.218;2022-11-20T13:41:01;6.40;99.90
40758;DHT22;26462;47.384;19.218;2022-11-20T13:43:56;6.40;99.90
40758;DHT22;26462;47.384;19.218;2022-11-20T13:46:44;6.30;99.90
40758;DHT22;26462;47.384;19.218;2022-11-20T13:52:37;7.30;99.90
40758;DHT22;26462;47.384;19.218;2022-11-20T13:55:29;6.20;99.90
40758;DHT22;26462;47.384;19.218;2022-11-20T13:58:33;6.30;99.90
40758;DHT22;26462;47.384;19.218;2022-11-20T14:04:36;6.20;99.90
40758;DHT22;26462;47.384;19.218;2022-11-20T14:07:09;6.20;99.90
40758;DHT22;26462;47.384;19.218;2022-11-20T14:09:55;6.40;99.90
40758;DHT22;26462;47.384;19.218;2022-11-20T14:12:32;6.10;99.90
40758;DHT22;26462;47.384;19.218;2022-11-20T14:15:00;6.20;99.90
40758;DHT22;26462;47.384;19.218;2022-11-20T14:20:28;6.00;99.90
40758;DHT22;26462;47.384;19.218;2022-11-20T14:23:01;4.80;99.90
40758;DHT22;26462;47.384;19.218;2022-11-20T14:25:56;6.00;99.90
40758;DHT22;26462;47.384;19.218;2022-11-20T14:28:28;6.10;99.90
40758;DHT22;26462;47.384;19.218;2022-11-20T14:30:57;6.00;99.90
40758;DHT22;26462;47.384;19.218;2022-11-20T14:33:26;5.90;99.90
40758;DHT22;26462;47.384;19.218;2022-11-20T14:35:57;5.80;99.90
40758;DHT22;26462;47.384;19.218;2022-11-20T14:38:31;5.90;99.90
40758;DHT22;26462;47.384;19.218;2022-11-20T14:41:19;6.10;99.90
40758;DHT22;26462;47.384;19.218;2022-11-20T14:43:53;5.80;99.90
40758;DHT22;26462;47.384;19.218;2022-11-20T14:46:23;5.80;99.90
40758;DHT22;26462;47.384;19.218;2022-11-20T14:48:56;5.80;99.90
40758;DHT22;26462;47.384;19.218;2022-11-20T14:53:54;5.70;99.90
40758;DHT22;26462;47.384;19.218;2022-11-20T14:56:24;5.50;99.90
40758;DHT22;26462;47.384;19.218;2022-11-20T14:58:56;5.70;99.90
40758;DHT22;26462;47.384;19.218;2022-11-20T15:01:25;5.70;99.90
40758;DHT22;26462;47.384;19.218;2022-11-20T15:04:11;5.00;99.90
40758;DHT22;26462;47.384;19.218;2022-11-20T15:06:51;5.70;99.90
40758;DHT22;26462;47.384;19.218;2022-11-20T15:09:19;5.50;99.90
40758;DHT22;26462;47.384;19.218;2022-11-20T15:11:59;5.70;99.90
40758;DHT22;26462;47.384;19.218;2022-11-20T15:14:28;4.50;99.90
40758;DHT22;26462;47.384;19.218;2022-11-20T15:16:56;5.60;99.90
40758;DHT22;26462;47.384;19.218;2022-11-20T15:19:25;4.50;99.90
40758;DHT22;26462;47.384;19.218;2022-11-20T15:21:53;5.60;99.90
40758;DHT22;26462;47.384;19.218;2022-11-20T15:24:21;5.50;99.90
40758;DHT22;26462;47.384;19.218;2022-11-20T15:26:49;5.50;99.90
40758;DHT22;26462;47.384;19.218;2022-11-20T15:29:24;5.50;99.90
40758;DHT22;26462;47.384;19.218;2022-11-20T15:31:51;5.60;99.90
40758;DHT22;26462;47.384;19.218;2022-11-20T15:34:20;4.40;99.90
40758;DHT22;26462;47.384;19.218;2022-11-20T15:36:48;5.30;99.90
40758;DHT22;26462;47.384;19.218;2022-11-20T15:39:16;5.30;99.90
40758;DHT22;26462;47.384;19.218;2022-11-20T15:41:43;5.20;99.90
40758;DHT22;26462;47.384;19.218;2022-11-20T15:44:11;5.20;99.90
40758;DHT22;26462;47.384;19.218;2022-11-20T15:46:41;5.20;99.90
40758;DHT22;26462;47.384;19.218;2022-11-20T15:49:15;5.10;99.90
40758;DHT22;26462;47.384;19.218;2022-11-20T15:51:44;5.10;99.90
40758;DHT22;26462;47.384;19.218;2022-11-20T15:54:15;5.10;99.90
40758;DHT22;26462;47.384;19.218;2022-11-20T15:56:44;5.00;99.90
40758;DHT22;26462;47.384;19.218;2022-11-20T15:59:13;4.90;99.90
40758;DHT22;26462;47.384;19.218;2022-11-20T16:01:44;4.90;99.90
40758;DHT22;26462;47.384;19.218;2022-11-20T16:04:14;4.90;99.90
40758;DHT22;26462;47.384;19.218;2022-11-20T16:06:42;4.90;99.90
40758;DHT22;26462;47.384;19.218;2022-11-20T16:09:10;4.80;99.90
40758;DHT22;26462;47.384;19.218;2022-11-20T16:11:37;4.80;99.90
40758;DHT22;26462;47.384;19.218;2022-11-20T16:14:05;4.70;99.90
40758;DHT22;26462;47.384;19.218;2022-11-20T16:16:52;4.70;99.90
40758;DHT22;26462;47.384;19.218;2022-11-20T16:19:19;4.60;99.90
40758;DHT22;26462;47.384;19.218;2022-11-20T16:21:47;4.50;99.90
40758;DHT22;26462;47.384;19.218;2022-11-20T16:24:15;4.70;99.90
40758;DHT22;26462;47.384;19.218;2022-11-20T16:26:43;4.50;99.90
40758;DHT22;26462;47.384;19.218;2022-11-20T16:29:10;4.50;99.90
40758;DHT22;26462;47.384;19.218;2022-11-20T16:31:38;4.50;99.90
40758;DHT22;26462;47.384;19.218;2022-11-20T16:34:07;4.40;99.90
40758;DHT22;26462;47.384;19.218;2022-11-20T16:36:42;4.50;99.90
40758;DHT22;26462;47.384;19.218;2022-11-20T16:39:11;4.40;99.90
40758;DHT22;26462;47.384;19.218;2022-11-20T16:41:39;4.30;99.90
40758;DHT22;26462;47.384;19.218;2022-11-20T16:44:09;4.30;99.90
40758;DHT22;26462;47.384;19.218;2022-11-20T16:46:38;4.30;99.90
40758;DHT22;26462;47.384;19.218;2022-11-20T16:49:12;4.30;99.90
40758;DHT22;26462;47.384;19.218;2022-11-20T16:51:40;4.30;99.90
40758;DHT22;26462;47.384;19.218;2022-11-20T16:54:09;4.20;99.90
40758;DHT22;26462;47.384;19.218;2022-11-20T16:56:40;4.20;99.90
40758;DHT22;26462;47.384;19.218;2022-11-20T16:59:08;4.10;99.90
40758;DHT22;26462;47.384;19.218;2022-11-20T17:01:35;4.20;99.90
40758;DHT22;26462;47.384;19.218;2022-11-20T17:04:05;4.20;99.90
40758;DHT22;26462;47.384;19.218;2022-11-20T17:06:35;4.00;99.90
40758;DHT22;26462;47.384;19.218;2022-11-20T17:09:03;4.10;99.90
40758;DHT22;26462;47.384;19.218;2022-11-20T17:11:32;4.00;99.90
40758;DHT22;26462;47.384;19.218;2022-11-20T17:14:00;4.00;99.90
40758;DHT22;26462;47.384;19.218;2022-11-20T17:16:30;4.00;99.90
40758;DHT22;26462;47.384;19.218;2022-11-20T17:18:59;3.90;99.90
40758;DHT22;26462;47.384;19.218;2022-11-20T17:21:33;3.90;99.90
40758;DHT22;26462;47.384;19.218;2022-11-20T17:24:06;3.90;99.90
40758;DHT22;26462;47.384;19.218;2022-11-20T17:26:36;3.80;99.90
40758;DHT22;26462;47.384;19.218;2022-11-20T17:29:06;3.80;99.90
40758;DHT22;26462;47.384;19.218;2022-11-20T17:31:34;3.70;99.90
40758;DHT22;26462;47.384;19.218;2022-11-20T17:34:02;3.70;99.90
40758;DHT22;26462;47.384;19.218;2022-11-20T17:36:30;3.70;99.90
40758;DHT22;26462;47.384;19.218;2022-11-20T17:38:58;3.70;99.90
40758;DHT22;26462;47.384;19.218;2022-11-20T17:41:30;3.80;99.90